createdAt,value
2019-02-27T00:02:32.640Z,45.86
2019-02-27T00:05:20.076Z,46.69
2019-02-27T00:08:07.641Z,46.70
2019-02-27T00:10:55.120Z,47.17
2019-02-27T00:13:42.344Z,47.06
2019-02-27T00:16:29.661Z,47.04
2019-02-27T00:19:17.287Z,47.34
2019-02-27T00:22:06.078Z,47.63
2019-02-27T00:24:53.570Z,47.45
2019-02-27T00:27:41.198Z,48.90
2019-02-27T00:30:29.247Z,48.98
2019-02-27T00:33:16.775Z,48.54
2019-02-27T00:36:04.291Z,48.53
2019-02-27T00:38:51.307Z,48.38
2019-02-27T00:41:38.934Z,48.25
2019-02-27T00:44:26.051Z,48.61
2019-02-27T00:47:13.884Z,48.68
2019-02-27T00:50:05.808Z,48.87
2019-02-27T00:52:51.071Z,48.50
2019-02-27T00:55:39.523Z,48.41
2019-02-27T00:58:27.660Z,48.96
2019-02-27T01:01:15.204Z,48.36
2019-02-27T01:04:02.486Z,48.19
2019-02-27T01:06:49.749Z,48.42
2019-02-27T01:09:39.579Z,48.39
2019-02-27T01:12:26.862Z,48.80
2019-02-27T01:15:15.088Z,48.81
2019-02-27T01:18:02.103Z,48.75
2019-02-27T01:20:49.834Z,49.34
2019-02-27T01:23:37.362Z,49.08
2019-02-27T01:26:24.990Z,49.15
2019-02-27T01:29:12.215Z,49.14
2019-02-27T01:31:59.737Z,48.88
2019-02-27T01:34:47.261Z,48.70
2019-02-27T01:37:34.892Z,48.29
2019-02-27T01:40:22.829Z,49.20
2019-02-27T01:43:10.150Z,49.97
2019-02-27T01:45:57.574Z,49.92
2019-02-27T01:48:45.415Z,49.47
2019-02-27T01:51:32.664Z,49.03
2019-02-27T01:54:20.256Z,49.04
2019-02-27T01:57:07.785Z,49.00
2019-02-27T01:59:55.208Z,48.96
2019-02-27T02:02:42.632Z,49.39
2019-02-27T02:05:29.854Z,49.48
2019-02-27T02:08:18.197Z,49.45
2019-02-27T02:11:05.829Z,49.34
2019-02-27T02:14:12.696Z,49.35
2019-02-27T02:17:07.472Z,49.34
2019-02-27T02:20:17.251Z,49.40
2019-02-27T02:23:29.351Z,49.67
2019-02-27T02:26:35.635Z,50.14
2019-02-27T02:29:41.171Z,50.07
2019-02-27T02:32:52.379Z,49.71
2019-02-27T02:35:51.195Z,49.44
2019-02-27T02:39:10.817Z,49.49
2019-02-27T02:42:04.160Z,49.66
2019-02-27T02:45:11.369Z,51.50
2019-02-27T02:48:19.994Z,50.59
2019-02-27T02:51:29.945Z,50.54
2019-02-27T02:54:23.965Z,50.31
2019-02-27T02:57:35.896Z,50.06
2019-02-27T03:00:48.025Z,52.97
2019-02-27T03:03:44.275Z,52.71
2019-02-27T03:06:44.173Z,51.72
2019-02-27T03:09:40.806Z,52.07
2019-02-27T03:12:36.945Z,52.19
2019-02-27T03:15:33.802Z,51.71
2019-02-27T03:18:30.478Z,51.54
2019-02-27T03:21:35.666Z,51.20
2019-02-27T03:24:48.792Z,50.82
2019-02-27T03:27:48.303Z,50.56
2019-02-27T03:30:47.708Z,50.60
2019-02-27T03:34:05.457Z,50.79
2019-02-27T03:37:14.183Z,51.58
2019-02-27T03:40:20.429Z,52.50
2019-02-27T03:43:30.890Z,51.76
2019-02-27T03:46:40.771Z,51.00
2019-02-27T03:49:45.263Z,51.26
2019-02-27T03:52:41.598Z,51.29
2019-02-27T03:55:37.940Z,52.53
2019-02-27T03:58:31.817Z,52.18
2019-02-27T04:01:34.797Z,52.32
2019-02-27T04:04:34.614Z,52.60
2019-02-27T04:07:47.993Z,52.15
2019-02-27T04:10:35.853Z,52.32
2019-02-27T04:13:26.396Z,52.06
2019-02-27T04:16:12.264Z,52.11
2019-02-27T04:19:02.726Z,52.34
2019-02-27T04:21:48.850Z,52.00
2019-02-27T04:24:36.187Z,51.52
2019-02-27T04:27:23.495Z,51.22
2019-02-27T04:30:14.809Z,51.36
2019-02-27T04:32:59.982Z,52.48
2019-02-27T04:35:47.609Z,52.49
2019-02-27T04:38:35.032Z,52.39
2019-02-27T04:41:22.463Z,51.95
2019-02-27T04:44:10.395Z,51.58
2019-02-27T04:46:57.712Z,51.76
2019-02-27T04:49:45.240Z,51.69
2019-02-27T04:52:32.870Z,51.61
2019-02-27T04:55:20.089Z,51.75
2019-02-27T04:58:09.009Z,51.93
2019-02-27T05:00:59.181Z,51.86
2019-02-27T05:03:45.230Z,51.61
2019-02-27T05:06:32.654Z,51.50
2019-02-27T05:09:20.282Z,51.33
2019-02-27T05:12:08.115Z,51.33
2019-02-27T05:14:55.743Z,51.39
2019-02-27T05:17:43.166Z,51.42
2019-02-27T05:20:31.006Z,51.71
2019-02-27T05:23:18.323Z,51.75
2019-02-27T05:26:06.156Z,51.79
2019-02-27T05:28:53.587Z,52.00
2019-02-27T05:31:41.211Z,52.93
2019-02-27T05:34:28.531Z,53.76
2019-02-27T05:37:15.981Z,52.76
2019-02-27T05:40:04.977Z,52.16
2019-02-27T05:42:52.341Z,52.05
2019-02-27T05:45:39.968Z,51.93
2019-02-27T05:48:27.617Z,51.50
2019-02-27T05:51:15.021Z,51.56
2019-02-27T05:54:02.641Z,51.70
2019-02-27T05:56:50.586Z,51.85
2019-02-27T05:59:37.908Z,51.44
2019-02-27T06:02:25.585Z,51.53
2019-02-27T06:05:13.390Z,52.02
2019-02-27T06:08:02.238Z,51.96
2019-02-27T06:10:49.552Z,51.60
2019-02-27T06:13:37.331Z,51.49
2019-02-27T06:16:25.019Z,51.35
2019-02-27T06:19:13.460Z,51.42
2019-02-27T06:22:00.804Z,51.79
2019-02-27T06:24:48.411Z,51.94
2019-02-27T06:27:37.162Z,52.22
2019-02-27T06:30:24.895Z,51.92
2019-02-27T06:33:12.433Z,52.68
2019-02-27T06:35:59.950Z,52.33
2019-02-27T06:38:47.786Z,52.38
2019-02-27T06:41:35.007Z,52.41
2019-02-27T06:44:22.736Z,52.38
2019-02-27T06:47:09.751Z,52.51
2019-02-27T06:49:57.275Z,52.47
2019-02-27T06:52:45.106Z,52.36
2019-02-27T06:55:33.834Z,53.98
2019-02-27T06:58:21.286Z,53.58
2019-02-27T07:01:09.669Z,52.87
2019-02-27T07:03:57.468Z,53.03
2019-02-27T07:06:44.582Z,53.26
2019-02-27T07:09:32.212Z,53.84
2019-02-27T07:12:21.908Z,54.92
2019-02-27T07:15:17.618Z,54.38
2019-02-27T07:18:06.075Z,56.95
2019-02-27T07:20:55.680Z,57.32
2019-02-27T07:23:43.948Z,57.50
2019-02-27T07:26:31.195Z,58.43
2019-02-27T07:29:21.753Z,57.15
2019-02-27T07:32:07.583Z,56.06
2019-02-27T07:34:55.107Z,55.48
2019-02-27T07:37:46.837Z,54.39
2019-02-27T07:40:32.024Z,53.78
2019-02-27T07:43:19.837Z,53.93
2019-02-27T07:46:07.362Z,53.82
2019-02-27T07:48:56.700Z,52.58
2019-02-27T07:51:43.850Z,52.01
2019-02-27T07:54:31.488Z,50.60
2019-02-27T07:57:19.001Z,49.84
2019-02-27T08:00:21.991Z,48.30
2019-02-27T08:03:12.951Z,47.66
2019-02-27T08:05:59.822Z,47.54
2019-02-27T08:08:48.768Z,46.66
2019-02-27T08:11:36.092Z,44.34
2019-02-27T08:14:23.513Z,44.03
2019-02-27T08:17:17.754Z,43.62
2019-02-27T08:19:59.894Z,42.83
2019-02-27T08:22:47.325Z,41.62
2019-02-27T08:25:34.747Z,41.44
2019-02-27T08:28:21.864Z,41.46
2019-02-27T08:31:09.290Z,41.39
2019-02-27T08:33:56.523Z,41.54
2019-02-27T08:36:44.142Z,39.47
2019-02-27T08:39:31.872Z,40.14
2019-02-27T08:42:19.193Z,39.62
2019-02-27T08:45:18.938Z,39.86
2019-02-27T08:47:58.115Z,39.06
2019-02-27T08:50:45.561Z,38.61
2019-02-27T08:53:34.447Z,38.48
2019-02-27T08:56:21.532Z,38.54
2019-02-27T08:59:08.758Z,37.21
2019-02-27T09:01:56.491Z,36.40
2019-02-27T09:04:45.411Z,36.81
2019-02-27T09:07:33.886Z,36.44
2019-02-27T09:10:28.103Z,36.22
2019-02-27T09:13:15.146Z,35.74
2019-02-27T09:16:03.027Z,33.08
2019-02-27T09:18:50.553Z,34.58
2019-02-27T09:21:38.082Z,35.55
2019-02-27T09:24:26.396Z,32.89
2019-02-27T09:27:13.744Z,33.99
2019-02-27T09:30:02.686Z,33.96
2019-02-27T09:32:49.618Z,33.97
2019-02-27T09:35:38.768Z,34.54
2019-02-27T09:38:26.104Z,32.09
2019-02-27T09:41:13.845Z,33.15
2019-02-27T09:44:01.547Z,32.79
2019-02-27T09:46:49.911Z,32.99
2019-02-27T09:49:40.819Z,31.89
2019-02-27T09:52:27.868Z,31.05
2019-02-27T09:55:20.173Z,31.40
2019-02-27T09:58:10.068Z,31.79
2019-02-27T10:01:00.280Z,30.65
2019-02-27T10:03:47.771Z,30.36
2019-02-27T10:06:34.887Z,30.29
2019-02-27T10:09:22.620Z,30.28
2019-02-27T10:12:10.039Z,29.30
2019-02-27T10:14:57.361Z,29.42
2019-02-27T10:17:45.401Z,28.96
2019-02-27T10:20:36.826Z,28.91
2019-02-27T10:23:21.989Z,28.83
2019-02-27T10:26:09.927Z,28.73
2019-02-27T10:28:57.369Z,28.02
2019-02-27T10:31:45.081Z,27.71
2019-02-27T10:34:32.402Z,27.25
2019-02-27T10:37:20.302Z,26.92
2019-02-27T10:40:25.075Z,27.50
2019-02-27T10:43:12.392Z,26.83
2019-02-27T10:45:59.814Z,25.93
2019-02-27T10:48:47.657Z,25.92
2019-02-27T10:51:34.872Z,25.50
2019-02-27T10:54:22.188Z,26.21
2019-02-27T10:57:09.716Z,25.99
2019-02-27T10:59:57.035Z,25.38
2019-02-27T11:02:47.451Z,24.78
2019-02-27T11:05:38.648Z,24.82
2019-02-27T11:08:28.894Z,24.93
2019-02-27T11:11:16.283Z,24.19
2019-02-27T11:14:03.374Z,23.97
2019-02-27T11:16:51.106Z,23.28
2019-02-27T11:19:38.221Z,24.06
2019-02-27T11:22:25.755Z,24.02
2019-02-27T11:25:15.994Z,24.05
2019-02-27T11:28:03.460Z,23.53
2019-02-27T11:30:51.133Z,23.35
2019-02-27T11:33:39.131Z,23.48
2019-02-27T11:36:26.249Z,22.55
2019-02-27T11:39:13.882Z,22.55
2019-02-27T11:42:01.089Z,22.41
2019-02-27T11:44:49.622Z,23.25
2019-02-27T11:47:37.380Z,23.32
2019-02-27T11:50:25.107Z,22.47
2019-02-27T11:53:13.052Z,22.22
2019-02-27T11:56:00.675Z,21.78
2019-02-27T11:58:48.715Z,21.55
2019-02-27T12:01:36.446Z,22.07
2019-02-27T12:04:23.564Z,22.10
2019-02-27T12:07:12.308Z,21.99
2019-02-27T12:09:59.847Z,21.07
2019-02-27T12:12:46.970Z,20.82
2019-02-27T12:15:34.385Z,20.31
2019-02-27T12:18:23.642Z,20.00
2019-02-27T12:21:11.486Z,20.81
2019-02-27T12:23:58.805Z,20.57
2019-02-27T12:26:46.536Z,19.81
2019-02-27T12:29:33.873Z,20.01
2019-02-27T12:32:21.927Z,20.14
2019-02-27T12:35:12.997Z,18.37
2019-02-27T12:38:00.441Z,18.94
2019-02-27T12:40:48.079Z,18.51
2019-02-27T12:43:35.412Z,17.73
2019-02-27T12:46:23.013Z,17.79
2019-02-27T12:49:10.848Z,17.53
2019-02-27T12:51:58.581Z,18.37
2019-02-27T12:54:48.364Z,17.56
2019-02-27T12:57:35.272Z,17.96
2019-02-27T13:00:25.767Z,17.76
2019-02-27T13:03:12.882Z,16.85
2019-02-27T13:06:00.976Z,16.72
2019-02-27T13:08:52.607Z,17.17
2019-02-27T13:11:39.122Z,16.59
2019-02-27T13:14:27.394Z,16.49
2019-02-27T13:17:15.037Z,16.89
2019-02-27T13:20:03.233Z,16.37
2019-02-27T13:22:50.994Z,16.50
2019-02-27T13:25:38.115Z,16.20
2019-02-27T13:28:25.441Z,17.04
2019-02-27T13:31:13.676Z,15.79
2019-02-27T13:34:01.722Z,15.38
2019-02-27T13:36:49.143Z,15.72
2019-02-27T13:39:36.977Z,15.14
2019-02-27T13:42:24.296Z,15.70
2019-02-27T13:45:20.393Z,15.39
2019-02-27T13:48:07.953Z,15.85
2019-02-27T13:50:56.625Z,15.54
2019-02-27T13:53:44.896Z,15.15
2019-02-27T13:56:33.499Z,14.78
2019-02-27T13:59:20.516Z,14.77
2019-02-27T14:02:08.458Z,13.81
2019-02-27T14:04:57.294Z,13.92
2019-02-27T14:07:45.347Z,14.55
2019-02-27T14:10:34.228Z,14.12
2019-02-27T14:13:21.532Z,13.15
2019-02-27T14:16:08.964Z,14.64
2019-02-27T14:18:56.687Z,14.35
2019-02-27T14:21:44.213Z,14.61
2019-02-27T14:24:31.232Z,14.62
2019-02-27T14:27:18.546Z,14.39
2019-02-27T14:30:12.219Z,15.07
2019-02-27T14:32:59.746Z,14.46
2019-02-27T14:35:47.577Z,14.04
2019-02-27T14:38:34.899Z,14.34
2019-02-27T14:41:22.223Z,14.28
2019-02-27T14:44:09.547Z,13.28
2019-02-27T14:46:57.283Z,13.64
2019-02-27T14:49:44.600Z,13.85
2019-02-27T14:52:32.225Z,13.73
2019-02-27T14:55:20.731Z,13.58
2019-02-27T14:58:08.099Z,13.58
2019-02-27T15:00:55.835Z,14.17
2019-02-27T15:03:43.370Z,13.40
2019-02-27T15:06:30.883Z,14.40
2019-02-27T15:09:18.298Z,14.75
2019-02-27T15:12:06.052Z,15.20
2019-02-27T15:14:55.363Z,16.03
2019-02-27T15:17:42.732Z,16.15
2019-02-27T15:20:30.786Z,16.23
2019-02-27T15:23:17.888Z,16.21
2019-02-27T15:26:05.824Z,16.06
2019-02-27T15:28:53.350Z,16.64
2019-02-27T15:31:40.877Z,16.55
2019-02-27T15:34:28.611Z,16.67
2019-02-27T15:37:16.238Z,17.21
2019-02-27T15:40:05.506Z,16.96
2019-02-27T15:42:52.831Z,16.60
2019-02-27T15:45:47.589Z,16.84
2019-02-27T15:48:28.802Z,17.37
2019-02-27T15:51:15.939Z,17.55
2019-02-27T15:54:03.603Z,16.99
2019-02-27T15:56:50.881Z,17.23
2019-02-27T15:59:41.748Z,17.10
2019-02-27T16:02:29.200Z,17.44
2019-02-27T16:05:16.524Z,18.42
2019-02-27T16:08:03.654Z,17.58
2019-02-27T16:10:54.734Z,18.18
2019-02-27T16:13:40.329Z,17.99
2019-02-27T16:16:27.448Z,18.29
2019-02-27T16:19:14.567Z,18.67
2019-02-27T16:22:02.297Z,18.89
2019-02-27T16:24:50.028Z,19.37
2019-02-27T16:27:38.758Z,19.84
2019-02-27T16:30:37.205Z,20.01
2019-02-27T16:33:24.710Z,21.60
2019-02-27T16:36:12.913Z,22.48
2019-02-27T16:39:07.013Z,23.63
2019-02-27T16:41:50.141Z,24.56
2019-02-27T16:44:37.359Z,25.74
2019-02-27T16:47:24.886Z,26.44
2019-02-27T16:50:17.942Z,27.12
2019-02-27T16:53:05.469Z,27.35
2019-02-27T16:55:52.996Z,27.78
2019-02-27T16:58:40.420Z,28.52
2019-02-27T17:01:29.522Z,28.86
2019-02-27T17:04:16.908Z,29.36
2019-02-27T17:07:04.471Z,29.38
2019-02-27T17:09:51.450Z,29.74
2019-02-27T17:12:40.851Z,30.01
2019-02-27T17:15:28.045Z,30.46
2019-02-27T17:18:15.261Z,30.73
2019-02-27T17:21:03.091Z,30.72
2019-02-27T17:23:50.514Z,30.70
2019-02-27T17:26:39.159Z,31.17
2019-02-27T17:29:26.807Z,31.04
2019-02-27T17:32:14.328Z,31.22
2019-02-27T17:35:01.447Z,31.02
2019-02-27T17:37:49.264Z,31.27
2019-02-27T17:40:37.510Z,31.54
2019-02-27T17:43:28.526Z,31.72
2019-02-27T17:46:14.005Z,32.09
2019-02-27T17:49:01.134Z,32.16
2019-02-27T17:51:49.566Z,32.20
2019-02-27T17:54:37.404Z,31.61
2019-02-27T17:57:25.244Z,31.99
2019-02-27T18:00:44.321Z,32.78
2019-02-27T18:03:31.941Z,33.21
2019-02-27T18:06:19.156Z,32.96
2019-02-27T18:09:07.244Z,32.70
2019-02-27T18:11:54.444Z,32.68
2019-02-27T18:14:45.569Z,32.80
2019-02-27T18:17:34.674Z,33.18
2019-02-27T18:20:24.404Z,33.18
2019-02-27T18:23:09.539Z,33.43
2019-02-27T18:25:56.656Z,33.47
2019-02-27T18:28:44.283Z,33.14
2019-02-27T18:31:32.117Z,32.75
2019-02-27T18:34:21.597Z,32.76
2019-02-27T18:37:08.400Z,32.40
2019-02-27T18:39:55.822Z,32.14
2019-02-27T18:42:43.774Z,33.93
2019-02-27T18:45:30.775Z,33.22
2019-02-27T18:48:18.317Z,34.00
2019-02-27T18:51:05.738Z,34.66
2019-02-27T18:53:53.363Z,35.10
2019-02-27T18:56:40.882Z,35.07
2019-02-27T18:59:29.657Z,35.30
2019-02-27T19:02:20.602Z,35.40
2019-02-27T19:05:08.445Z,35.95
2019-02-27T19:07:56.110Z,36.36
2019-02-27T19:10:43.736Z,36.74
2019-02-27T19:13:31.780Z,36.86
2019-02-27T19:16:20.729Z,37.14
2019-02-27T19:19:08.874Z,36.92
2019-02-27T19:21:56.404Z,37.07
2019-02-27T19:24:44.337Z,36.89
2019-02-27T19:27:31.867Z,36.92
2019-02-27T19:30:20.415Z,37.04
2019-02-27T19:33:08.340Z,37.18
2019-02-27T19:35:56.501Z,37.17
2019-02-27T19:38:47.560Z,37.45
2019-02-27T19:41:38.746Z,37.33
2019-02-27T19:44:22.864Z,37.05
2019-02-27T19:47:10.211Z,37.04
2019-02-27T19:49:57.418Z,36.47
2019-02-27T19:52:44.928Z,35.53
2019-02-27T19:55:32.865Z,35.88
2019-02-27T19:58:20.391Z,36.06
2019-02-27T20:01:09.763Z,35.68
2019-02-27T20:03:57.601Z,35.63
2019-02-27T20:06:44.714Z,35.13
2019-02-27T20:09:32.234Z,35.39
2019-02-27T20:12:19.765Z,35.54
2019-02-27T20:15:11.028Z,37.49
2019-02-27T20:17:59.427Z,37.62
2019-02-27T20:20:46.954Z,37.69
2019-02-27T20:23:34.379Z,37.94
2019-02-27T20:26:21.701Z,38.19
2019-02-27T20:29:08.824Z,38.31
2019-02-27T20:31:55.733Z,38.64
2019-02-27T20:34:45.919Z,39.16
2019-02-27T20:37:37.149Z,39.45
2019-02-27T20:40:23.839Z,39.97
2019-02-27T20:43:11.366Z,39.03
2019-02-27T20:45:59.003Z,38.54
2019-02-27T20:48:46.419Z,38.34
2019-02-27T20:51:33.638Z,38.23
2019-02-27T20:54:20.741Z,37.65
2019-02-27T20:57:08.946Z,37.07
2019-02-27T21:00:00.525Z,36.39
2019-02-27T21:02:44.974Z,36.37
2019-02-27T21:05:32.992Z,36.18
2019-02-27T21:08:20.231Z,36.19
2019-02-27T21:11:08.679Z,36.14
2019-02-27T21:13:55.591Z,36.20
2019-02-27T21:16:45.641Z,35.97
2019-02-27T21:19:33.885Z,35.92
2019-02-27T21:22:21.448Z,36.10
2019-02-27T21:25:12.046Z,36.19
2019-02-27T21:28:00.292Z,36.15
2019-02-27T21:30:51.782Z,36.25
2019-02-27T21:33:36.674Z,36.03
2019-02-27T21:36:24.144Z,35.96
2019-02-27T21:39:11.529Z,36.09
2019-02-27T21:41:59.053Z,36.85
2019-02-27T21:44:46.478Z,36.83
2019-02-27T21:47:34.702Z,36.82
2019-02-27T21:50:23.889Z,36.61
2019-02-27T21:53:11.428Z,36.48
2019-02-27T21:55:59.038Z,36.56
2019-02-27T21:58:47.600Z,36.81
2019-02-27T22:01:35.021Z,36.95
2019-02-27T22:04:22.848Z,37.22
2019-02-27T22:07:10.679Z,37.54
2019-02-27T22:09:57.903Z,38.32
2019-02-27T22:12:45.324Z,38.71
2019-02-27T22:15:32.852Z,38.95
2019-02-27T22:18:20.278Z,39.12
2019-02-27T22:21:07.596Z,39.15
2019-02-27T22:23:55.331Z,39.41
2019-02-27T22:26:42.343Z,39.93
2019-02-27T22:29:30.382Z,40.52
2019-02-27T22:32:17.806Z,40.60
2019-02-27T22:35:06.304Z,40.39
2019-02-27T22:37:53.675Z,40.41
2019-02-27T22:40:41.305Z,40.48
2019-02-27T22:43:28.836Z,41.27
2019-02-27T22:46:16.451Z,40.62
2019-02-27T22:49:04.402Z,40.58
2019-02-27T22:51:51.825Z,40.44
2019-02-27T22:54:39.246Z,40.33
2019-02-27T22:57:26.978Z,40.71
2019-02-27T23:00:42.965Z,40.75
2019-02-27T23:03:35.414Z,40.11
2019-02-27T23:06:22.838Z,39.96
2019-02-27T23:09:11.578Z,39.33
2019-02-27T23:11:59.222Z,39.20
2019-02-27T23:14:47.059Z,38.88
2019-02-27T23:17:34.787Z,39.18
2019-02-27T23:20:21.905Z,39.48
2019-02-27T23:23:09.123Z,39.75
2019-02-27T23:25:56.445Z,40.10
2019-02-27T23:28:44.074Z,40.28
2019-02-27T23:31:32.609Z,40.30
2019-02-27T23:34:19.947Z,40.41
2019-02-27T23:37:06.959Z,40.57
2019-02-27T23:39:54.399Z,40.17
2019-02-27T23:42:42.218Z,40.38
2019-02-27T23:45:29.235Z,40.11
2019-02-27T23:48:16.762Z,40.27
2019-02-27T23:51:04.798Z,40.20
2019-02-27T23:53:52.328Z,40.27
2019-02-27T23:56:39.859Z,40.35
2019-02-27T23:59:26.972Z,40.28
